world map with RAK marked

RAK - Airport

This information may not be accurate or current and is not valid for navigation or flight planning. No warranty of fitness for any purpose is made or implied.

flag of Morocco

Donate via PayPal

Additional information is available on the NEW Great Circle Mapper

Location
City:  Marrakech, Rabat-Salé-Zemmour-Zaer, Morocco
Name:Ménara
ICAO / IATA:GMMX / RAK

Details
Type:Airport (Aerodrome, Airfield)
Use:Public/Civil
Latitude:31°36'31"N (31.608611)
Longitude:8°02'27"W (-8.040832)
Elevation:1545 ft (471 m)
Runways:1
Longest:10171 × 148 ft (3100 × 45 m)

Time
Timezone:UTC+0 (DST+3)
Local Time:

Weather
METAR:GMMX  211000Z 04003KT 360V070 8000 BKN023 12/07 Q1023 NOSIG
TAF:GMMX  210500Z 2106/2212 06006KT 8000 SCT026 SCT090

Related Locations
Nearby:
Farthest:NZMG: 12182 mi / 19606 km
Mangonui [Heliport], NTL, NZ

Find:

   beyond  
but within

Other Information
Maps:
Sources:

  


 


Great Circle Mapper   Great Circle Mapper
Great Circle Mapper FAQ   Great Circle Mapper FAQ
  Karl's Home Page
KLS˛   KLS˛ Home
   GC on Facebook
Airlines of the World   Airlines of the World
Donate via PayPal


Copyright © 2004-2019, Karl L. Swartz. All rights reserved.
All trademarks mentioned herein belong to their respective owners.

Please see credits for attribution and copyright information.

Karl Swartz <karl@kls2.com>
  Powered by FreeBSD
Valid HTML 4.01!
Labeled with ICRA
hCard Microformat
Geo Microformat